createdAt,value
2017-09-13T00:01:42.088Z,9.63
2017-09-13T00:04:09.058Z,5.50
2017-09-13T00:06:35.709Z,4.00
2017-09-13T00:09:02.437Z,7.43
2017-09-13T00:11:29.068Z,4.53
2017-09-13T00:13:55.710Z,8.03
2017-09-13T00:16:22.315Z,4.40
2017-09-13T00:18:48.960Z,4.83
2017-09-13T00:21:15.602Z,11.43
2017-09-13T00:23:42.500Z,4.87
2017-09-13T00:26:09.149Z,4.43
2017-09-13T00:28:35.765Z,8.47
2017-09-13T00:31:02.418Z,3.63
2017-09-13T00:33:29.042Z,7.70
2017-09-13T00:35:55.646Z,10.03
2017-09-13T00:38:22.303Z,10.37
2017-09-13T00:40:49.028Z,4.20
2017-09-13T00:43:15.656Z,3.87
2017-09-13T00:45:42.306Z,8.53
2017-09-13T00:48:08.944Z,5.10
2017-09-13T00:50:35.574Z,7.83
2017-09-13T00:53:02.500Z,5.50
2017-09-13T00:55:29.122Z,9.93
2017-09-13T00:57:55.769Z,4.80
2017-09-13T01:00:22.398Z,6.53
2017-09-13T01:02:49.014Z,10.47
2017-09-13T01:05:15.655Z,11.20
2017-09-13T01:07:42.283Z,6.50
2017-09-13T01:10:08.892Z,6.40
2017-09-13T01:12:35.554Z,7.73
2017-09-13T01:15:02.197Z,11.17
2017-09-13T01:17:28.813Z,4.07
2017-09-13T01:19:55.456Z,8.00
2017-09-13T01:22:22.129Z,10.53
2017-09-13T01:24:48.751Z,8.93
2017-09-13T01:27:15.394Z,8.53
2017-09-13T01:29:42.010Z,6.43
2017-09-13T01:32:08.635Z,9.37
2017-09-13T01:34:35.255Z,6.60
2017-09-13T01:37:01.907Z,8.57
2017-09-13T01:39:28.515Z,8.17
2017-09-13T01:41:55.135Z,6.80
2017-09-13T01:44:21.763Z,10.43
2017-09-13T01:46:48.370Z,5.40
2017-09-13T01:49:15.027Z,7.40
2017-09-13T01:51:41.644Z,8.20
2017-09-13T01:54:08.285Z,8.43
2017-09-13T01:56:34.939Z,16.63
2017-09-13T01:59:01.595Z,7.33
2017-09-13T02:01:28.411Z,11.30
2017-09-13T02:03:55.037Z,11.37
2017-09-13T02:06:21.667Z,10.57
2017-09-13T02:08:48.316Z,19.67
2017-09-13T02:11:14.963Z,11.53
2017-09-13T02:13:41.987Z,9.93
2017-09-13T02:16:08.613Z,14.10
2017-09-13T02:18:35.238Z,9.00
2017-09-13T02:21:01.883Z,14.67
2017-09-13T02:23:28.531Z,12.23
2017-09-13T02:25:55.188Z,11.57
2017-09-13T02:28:21.822Z,18.67
2017-09-13T02:30:48.469Z,12.57
2017-09-13T02:33:15.100Z,15.90
2017-09-13T02:35:41.718Z,16.90
2017-09-13T02:38:08.394Z,14.10
2017-09-13T02:40:35.006Z,9.97
2017-09-13T02:43:01.635Z,14.43
2017-09-13T02:45:28.271Z,16.90
2017-09-13T02:47:54.927Z,16.17
2017-09-13T02:50:21.536Z,9.00
2017-09-13T02:52:48.185Z,13.23
2017-09-13T02:55:14.857Z,12.73
2017-09-13T02:57:41.455Z,14.63
2017-09-13T03:00:08.074Z,10.40
2017-09-13T03:02:34.725Z,14.87
2017-09-13T03:05:01.355Z,11.23
2017-09-13T03:07:27.998Z,10.10
2017-09-13T03:09:54.639Z,17.67
2017-09-13T03:12:21.262Z,10.10
2017-09-13T03:14:47.888Z,12.53
2017-09-13T03:17:14.549Z,7.77
2017-09-13T03:19:42.346Z,13.40
2017-09-13T03:22:09.038Z,11.70
2017-09-13T03:24:35.660Z,10.20
2017-09-13T03:27:02.281Z,8.07
2017-09-13T03:29:28.910Z,6.30
2017-09-13T03:31:55.557Z,12.70
2017-09-13T03:34:22.163Z,8.77
2017-09-13T03:36:48.819Z,11.03
2017-09-13T03:39:15.518Z,22.27
2017-09-13T03:41:42.152Z,12.97
2017-09-13T03:44:08.836Z,8.30
2017-09-13T03:46:35.476Z,6.00
2017-09-13T03:49:02.090Z,4.30
2017-09-13T03:51:28.708Z,8.20
2017-09-13T03:53:55.387Z,10.87
2017-09-13T03:56:22.006Z,6.47
2017-09-13T03:58:48.631Z,8.67
2017-09-13T04:01:15.266Z,12.73
2017-09-13T04:03:42.268Z,8.20
2017-09-13T04:06:08.924Z,6.67
2017-09-13T04:08:35.926Z,5.63
2017-09-13T04:11:02.551Z,2.30
2017-09-13T04:13:29.171Z,5.53
2017-09-13T04:15:55.812Z,4.60
2017-09-13T04:18:22.435Z,7.40
2017-09-13T04:20:49.068Z,3.07
2017-09-13T04:23:15.711Z,4.10
2017-09-13T04:25:42.349Z,6.30
2017-09-13T04:28:08.999Z,2.37
2017-09-13T04:30:35.611Z,1.30
2017-09-13T04:33:02.211Z,2.60
2017-09-13T04:35:28.839Z,3.80
2017-09-13T04:37:55.455Z,2.00
2017-09-13T04:40:22.116Z,2.00
2017-09-13T04:42:48.725Z,2.27
2017-09-13T04:45:15.330Z,2.23
2017-09-13T04:47:41.975Z,2.67
2017-09-13T04:50:08.591Z,1.60
2017-09-13T04:52:35.207Z,1.33
2017-09-13T04:55:01.840Z,2.40
2017-09-13T04:57:28.480Z,1.27
2017-09-13T04:59:55.111Z,1.03
2017-09-13T05:02:21.759Z,1.03
2017-09-13T05:04:48.382Z,2.53
2017-09-13T05:07:15.081Z,1.73
2017-09-13T05:09:41.707Z,1.33
2017-09-13T05:12:08.332Z,1.60
2017-09-13T05:14:34.966Z,0.50
2017-09-13T05:17:01.617Z,0.97
2017-09-13T05:19:28.235Z,1.00
2017-09-13T05:21:54.872Z,0.50
2017-09-13T05:24:21.482Z,1.13
2017-09-13T05:26:48.120Z,0.50
2017-09-13T05:29:14.763Z,0.80
2017-09-13T05:31:41.678Z,0.70
2017-09-13T05:34:08.299Z,0.50
2017-09-13T05:36:34.921Z,0.40
2017-09-13T05:39:01.571Z,4.20
2017-09-13T05:41:28.232Z,1.00
2017-09-13T05:43:54.862Z,1.20
2017-09-13T05:46:21.484Z,0.60
2017-09-13T05:48:48.123Z,0.50
2017-09-13T05:51:14.758Z,0.60
2017-09-13T05:53:41.379Z,0.77
2017-09-13T05:56:07.999Z,0.80
2017-09-13T05:58:34.636Z,0.73
2017-09-13T06:01:01.270Z,0.50
2017-09-13T06:03:27.891Z,0.50
2017-09-13T06:05:54.498Z,0.70
2017-09-13T06:08:21.124Z,2.50
2017-09-13T06:10:47.756Z,0.60
2017-09-13T06:13:14.408Z,2.90
2017-09-13T06:15:41.018Z,2.67
2017-09-13T06:18:07.623Z,1.70
2017-09-13T06:20:34.251Z,4.13
2017-09-13T06:23:00.871Z,1.10
2017-09-13T06:25:27.507Z,1.33
2017-09-13T06:27:54.134Z,0.93
2017-09-13T06:30:20.759Z,0.50
2017-09-13T06:32:47.400Z,2.87
2017-09-13T06:35:14.036Z,1.77
2017-09-13T06:37:40.658Z,1.67
2017-09-13T06:40:07.302Z,1.93
2017-09-13T06:42:34.317Z,1.67
2017-09-13T06:45:00.941Z,1.77
2017-09-13T06:47:27.606Z,3.97
2017-09-13T06:49:54.218Z,2.50
2017-09-13T06:52:20.852Z,5.33
2017-09-13T06:54:47.487Z,2.17
2017-09-13T06:57:14.087Z,7.30
2017-09-13T06:59:40.742Z,3.83
2017-09-13T07:02:07.358Z,8.93
2017-09-13T07:04:33.972Z,3.50
2017-09-13T07:07:00.603Z,4.10
2017-09-13T07:09:27.220Z,12.43
2017-09-13T07:11:53.832Z,4.80
2017-09-13T07:14:20.465Z,3.00
2017-09-13T07:16:47.071Z,6.97
2017-09-13T07:19:13.703Z,9.77
2017-09-13T07:21:40.343Z,10.07
2017-09-13T07:24:06.973Z,7.13
2017-09-13T07:26:34.439Z,9.50
2017-09-13T07:29:01.076Z,9.23
2017-09-13T07:31:27.711Z,11.33
2017-09-13T07:33:54.319Z,7.80
2017-09-13T07:36:20.969Z,6.87
2017-09-13T07:38:47.583Z,7.00
2017-09-13T07:41:14.220Z,13.90
2017-09-13T07:43:40.869Z,11.90
2017-09-13T07:46:07.486Z,15.50
2017-09-13T07:48:34.136Z,7.40
2017-09-13T07:51:00.768Z,13.07
2017-09-13T07:53:27.399Z,11.23
2017-09-13T07:55:54.033Z,15.43
2017-09-13T07:58:20.687Z,12.00
2017-09-13T08:00:47.365Z,13.90
2017-09-13T08:03:13.979Z,12.30
2017-09-13T08:05:40.643Z,12.57
2017-09-13T08:08:07.291Z,15.30
2017-09-13T08:10:33.913Z,10.37
2017-09-13T08:13:00.551Z,13.27
2017-09-13T08:15:27.167Z,12.53
2017-09-13T08:17:53.911Z,16.97
2017-09-13T08:20:20.521Z,14.90
2017-09-13T08:22:47.139Z,18.73
2017-09-13T08:25:13.799Z,21.53
2017-09-13T08:27:40.428Z,22.23
2017-09-13T08:30:07.098Z,18.40
2017-09-13T08:32:33.731Z,17.67
2017-09-13T08:35:00.380Z,13.37
2017-09-13T08:37:27.020Z,18.40
2017-09-13T08:39:53.638Z,21.20
2017-09-13T08:42:20.257Z,18.10
2017-09-13T08:44:46.862Z,16.90
2017-09-13T08:47:13.496Z,19.23
2017-09-13T08:49:40.110Z,35.17
2017-09-13T08:52:06.730Z,13.20
2017-09-13T08:54:33.490Z,13.40
2017-09-13T08:57:00.097Z,18.90
2017-09-13T08:59:26.754Z,21.63
2017-09-13T09:01:53.386Z,14.73
2017-09-13T09:04:20.052Z,18.50
2017-09-13T09:06:46.967Z,15.60
2017-09-13T09:09:13.581Z,14.00
2017-09-13T09:11:40.233Z,17.00
2017-09-13T09:14:06.847Z,10.43
2017-09-13T09:16:33.466Z,19.57
2017-09-13T09:19:00.145Z,23.17
2017-09-13T09:21:26.768Z,11.60
2017-09-13T09:23:53.387Z,22.83
2017-09-13T09:26:20.022Z,15.40
2017-09-13T09:28:46.648Z,14.40
2017-09-13T09:31:13.277Z,11.23
2017-09-13T09:33:39.906Z,10.87
2017-09-13T09:36:06.516Z,20.93
2017-09-13T09:38:33.159Z,11.83
2017-09-13T09:40:59.788Z,26.00
2017-09-13T09:43:26.416Z,6.63
2017-09-13T09:45:53.046Z,17.87
2017-09-13T09:48:19.672Z,11.80
2017-09-13T09:50:46.292Z,9.63
2017-09-13T09:53:12.899Z,9.40
2017-09-13T09:55:39.533Z,10.43
2017-09-13T09:58:06.163Z,9.93
2017-09-13T10:00:32.800Z,15.97
2017-09-13T10:02:59.458Z,12.70
2017-09-13T10:05:26.106Z,9.20
2017-09-13T10:07:52.737Z,12.50
2017-09-13T10:10:19.383Z,11.03
2017-09-13T10:12:46.037Z,13.47
2017-09-13T10:15:12.667Z,15.77
2017-09-13T10:17:39.339Z,15.80
2017-09-13T10:20:05.997Z,11.30
2017-09-13T10:22:32.636Z,10.43
2017-09-13T10:24:59.248Z,8.30
2017-09-13T10:27:25.855Z,6.10
2017-09-13T10:29:52.507Z,13.13
2017-09-13T10:32:19.143Z,5.20
2017-09-13T10:34:45.751Z,12.87
2017-09-13T10:37:12.375Z,12.17
2017-09-13T10:39:39.000Z,10.80
2017-09-13T10:42:05.610Z,7.63
2017-09-13T10:44:32.239Z,9.27
2017-09-13T10:46:58.855Z,14.20
2017-09-13T10:49:25.495Z,11.33
2017-09-13T10:51:52.128Z,9.47
2017-09-13T10:54:18.736Z,14.30
2017-09-13T10:56:45.393Z,13.20
2017-09-13T10:59:12.026Z,12.43
2017-09-13T11:01:38.656Z,13.13
2017-09-13T11:04:05.355Z,10.33
2017-09-13T11:06:31.989Z,12.03
2017-09-13T11:08:58.632Z,9.93
2017-09-13T11:11:25.260Z,7.23
2017-09-13T11:13:51.923Z,11.00
2017-09-13T11:16:18.543Z,15.20
2017-09-13T11:18:45.200Z,11.70
2017-09-13T11:21:11.848Z,12.43
2017-09-13T11:23:38.462Z,8.03
2017-09-13T11:26:05.086Z,4.03
2017-09-13T11:28:31.696Z,8.33
2017-09-13T11:30:58.326Z,9.43
2017-09-13T11:33:24.959Z,8.37
2017-09-13T11:35:51.601Z,10.73
2017-09-13T11:38:18.235Z,8.93
2017-09-13T11:40:44.850Z,8.57
2017-09-13T11:43:11.508Z,8.60
2017-09-13T11:45:38.116Z,10.40
2017-09-13T11:48:04.765Z,6.90
2017-09-13T11:50:31.397Z,15.00
2017-09-13T11:52:58.120Z,15.37
2017-09-13T11:55:24.747Z,12.63
2017-09-13T11:57:51.427Z,4.27
2017-09-13T12:00:18.441Z,6.97
2017-09-13T12:02:45.075Z,5.77
2017-09-13T12:05:11.716Z,8.80
2017-09-13T12:07:38.396Z,6.83
2017-09-13T12:10:05.024Z,10.83
2017-09-13T12:12:31.669Z,5.40
2017-09-13T12:14:58.287Z,8.40
2017-09-13T12:17:24.921Z,13.07
2017-09-13T12:19:51.555Z,9.57
2017-09-13T12:22:18.187Z,6.27
2017-09-13T12:24:44.823Z,14.90
2017-09-13T12:27:11.460Z,6.70
2017-09-13T12:29:38.100Z,8.40
2017-09-13T12:32:04.722Z,8.73
2017-09-13T12:34:31.363Z,9.83
2017-09-13T12:36:57.970Z,9.10
2017-09-13T12:39:24.602Z,6.90
2017-09-13T12:41:51.251Z,17.50
2017-09-13T12:44:17.891Z,5.77
2017-09-13T12:46:44.522Z,9.80
2017-09-13T12:49:11.187Z,11.63
2017-09-13T12:51:37.799Z,4.57
2017-09-13T12:54:04.430Z,5.40
2017-09-13T12:56:31.087Z,8.80
2017-09-13T12:58:57.724Z,7.50
2017-09-13T13:01:24.363Z,9.90
2017-09-13T13:03:50.973Z,5.90
2017-09-13T13:06:17.651Z,14.87
2017-09-13T13:08:44.276Z,5.63
2017-09-13T13:11:10.946Z,10.23
2017-09-13T13:13:37.564Z,11.00
2017-09-13T13:16:04.201Z,12.53
2017-09-13T13:18:30.863Z,6.63
2017-09-13T13:20:57.499Z,10.13
2017-09-13T13:23:24.135Z,8.07
2017-09-13T13:25:50.767Z,11.50
2017-09-13T13:28:17.427Z,9.73
2017-09-13T13:30:44.050Z,3.47
2017-09-13T13:33:10.683Z,12.93
2017-09-13T13:35:37.343Z,6.40
2017-09-13T13:38:03.976Z,5.57
2017-09-13T13:40:30.612Z,11.83
2017-09-13T13:42:57.210Z,4.53
2017-09-13T13:45:23.855Z,8.73
2017-09-13T13:47:50.496Z,10.37
2017-09-13T13:50:17.124Z,14.83
2017-09-13T13:52:43.743Z,4.93
2017-09-13T13:55:10.377Z,2.90
2017-09-13T13:57:37.015Z,5.77
2017-09-13T14:00:03.689Z,4.67
2017-09-13T14:02:30.287Z,4.20
2017-09-13T14:04:56.934Z,11.37
2017-09-13T14:07:23.562Z,8.53
2017-09-13T14:09:50.211Z,4.83
2017-09-13T14:12:16.857Z,6.80
2017-09-13T14:14:43.497Z,8.40
2017-09-13T14:17:10.154Z,4.50
2017-09-13T14:19:36.800Z,6.57
2017-09-13T14:22:03.467Z,12.23
2017-09-13T14:24:30.103Z,7.37
2017-09-13T14:26:56.757Z,7.87
2017-09-13T14:29:23.444Z,1.60
2017-09-13T14:31:50.066Z,4.40
2017-09-13T14:34:16.710Z,3.00
2017-09-13T14:36:43.337Z,5.47
2017-09-13T14:39:09.961Z,7.27
2017-09-13T14:41:36.592Z,2.70
2017-09-13T14:44:03.235Z,4.93
2017-09-13T14:46:29.848Z,5.97
2017-09-13T14:48:56.448Z,5.07
2017-09-13T14:51:23.106Z,5.57
2017-09-13T14:53:49.737Z,9.47
2017-09-13T14:56:16.400Z,5.43
2017-09-13T14:58:43.052Z,4.03
2017-09-13T15:01:09.699Z,5.50
2017-09-13T15:03:36.321Z,4.17
2017-09-13T15:06:02.935Z,3.13
2017-09-13T15:08:29.587Z,3.47
2017-09-13T15:17:40.775Z,5.17
2017-09-13T15:20:07.419Z,4.83
2017-09-13T15:22:34.035Z,4.10
2017-09-13T15:25:00.692Z,5.33
2017-09-13T15:27:27.307Z,3.50
2017-09-13T15:29:53.953Z,7.23
2017-09-13T15:32:20.614Z,6.90
2017-09-13T15:34:47.246Z,5.83
2017-09-13T15:37:13.889Z,3.07
2017-09-13T15:39:40.527Z,2.70
2017-09-13T15:42:07.138Z,3.87
2017-09-13T15:44:33.772Z,1.10
2017-09-13T15:47:00.432Z,4.50
2017-09-13T15:49:27.063Z,4.10
2017-09-13T15:51:53.695Z,4.97
2017-09-13T15:54:20.330Z,3.23
2017-09-13T15:56:46.948Z,5.23
2017-09-13T15:59:13.580Z,3.17
2017-09-13T16:01:40.240Z,5.40
2017-09-13T16:04:06.871Z,4.50
2017-09-13T16:06:33.485Z,2.70
2017-09-13T16:09:00.477Z,4.73
2017-09-13T16:11:27.121Z,2.23
2017-09-13T16:13:53.750Z,5.20
2017-09-13T16:16:20.381Z,3.93
2017-09-13T16:18:47.039Z,2.70
2017-09-13T16:21:13.662Z,2.67
2017-09-13T16:23:40.316Z,4.80
2017-09-13T16:26:06.956Z,2.67
2017-09-13T16:28:33.575Z,5.70
2017-09-13T16:31:00.207Z,4.53
2017-09-13T16:33:26.854Z,7.13
2017-09-13T16:35:53.492Z,2.10
2017-09-13T16:38:20.122Z,2.03
2017-09-13T16:40:46.779Z,3.57
2017-09-13T16:43:13.392Z,2.03
2017-09-13T16:45:40.033Z,4.10
2017-09-13T16:48:06.644Z,5.53
2017-09-13T16:50:33.285Z,8.90
2017-09-13T16:52:59.896Z,8.77
2017-09-13T16:55:26.528Z,5.83
2017-09-13T16:57:53.181Z,4.53
2017-09-13T17:00:19.796Z,8.90
2017-09-13T17:02:46.620Z,6.67
2017-09-13T17:05:13.228Z,3.87
2017-09-13T17:07:39.873Z,5.13
2017-09-13T17:10:06.538Z,8.77
2017-09-13T17:12:33.170Z,4.37
2017-09-13T17:14:59.790Z,6.13
2017-09-13T17:17:26.442Z,7.53
2017-09-13T17:19:53.063Z,14.37
2017-09-13T17:22:19.667Z,6.53
2017-09-13T17:24:46.296Z,5.33
2017-09-13T17:27:12.903Z,6.10
2017-09-13T17:29:39.526Z,7.33
2017-09-13T17:32:06.183Z,10.23
2017-09-13T17:34:32.828Z,5.63
2017-09-13T17:36:59.463Z,4.67
2017-09-13T17:39:26.095Z,5.07
2017-09-13T17:41:52.717Z,6.00
2017-09-13T17:44:19.358Z,7.30
2017-09-13T17:46:45.959Z,7.50
2017-09-13T17:49:12.664Z,7.03
2017-09-13T17:51:39.298Z,6.97
2017-09-13T17:54:05.907Z,6.67
2017-09-13T17:56:32.566Z,9.40
2017-09-13T17:58:59.212Z,4.43
2017-09-13T18:01:25.868Z,13.37
2017-09-13T18:03:52.475Z,12.53
2017-09-13T18:06:19.103Z,6.33
2017-09-13T18:08:45.752Z,8.10
2017-09-13T18:11:12.396Z,11.33
2017-09-13T18:13:39.059Z,8.90
2017-09-13T18:16:05.727Z,10.90
2017-09-13T18:18:32.370Z,10.20
2017-09-13T18:20:58.996Z,8.63
2017-09-13T18:23:25.630Z,10.27
2017-09-13T18:25:52.256Z,5.60
2017-09-13T18:28:18.869Z,12.60
2017-09-13T18:30:45.541Z,13.73
2017-09-13T18:33:12.161Z,5.37
2017-09-13T18:35:38.797Z,17.90
2017-09-13T18:38:05.418Z,6.37
2017-09-13T18:40:32.075Z,10.43
2017-09-13T18:42:58.736Z,15.23
2017-09-13T18:45:25.367Z,8.17
2017-09-13T18:47:52.007Z,7.57
2017-09-13T18:50:18.635Z,11.33
2017-09-13T18:52:45.255Z,9.30
2017-09-13T18:55:11.895Z,7.90
2017-09-13T18:57:38.524Z,4.13
2017-09-13T19:00:05.200Z,16.57
2017-09-13T19:02:31.835Z,9.03
2017-09-13T19:04:58.465Z,6.40
2017-09-13T19:07:25.111Z,10.50
2017-09-13T19:09:51.773Z,15.17
2017-09-13T19:12:18.409Z,5.47
2017-09-13T19:14:45.072Z,10.73
2017-09-13T19:17:11.677Z,8.30
2017-09-13T19:19:38.287Z,6.63
2017-09-13T19:22:04.938Z,9.23
2017-09-13T19:24:31.553Z,7.57
2017-09-13T19:26:58.182Z,5.33
2017-09-13T19:29:24.813Z,11.60
2017-09-13T19:31:51.480Z,10.60
2017-09-13T19:34:18.115Z,3.67
2017-09-13T19:36:44.775Z,6.57
2017-09-13T19:39:11.413Z,9.10
2017-09-13T19:41:38.046Z,12.10
2017-09-13T19:44:04.697Z,5.60
2017-09-13T19:46:31.305Z,12.60
2017-09-13T19:48:57.987Z,9.83
2017-09-13T19:51:24.596Z,7.20
2017-09-13T19:53:51.247Z,9.30
2017-09-13T19:56:17.904Z,8.83
2017-09-13T19:58:44.503Z,7.70
2017-09-13T20:01:11.156Z,8.77
2017-09-13T20:03:37.778Z,7.70
2017-09-13T20:06:04.432Z,15.07
2017-09-13T20:08:31.069Z,10.50
2017-09-13T20:10:57.697Z,8.47
2017-09-13T20:13:24.367Z,11.10
2017-09-13T20:15:51.002Z,15.40
2017-09-13T20:18:17.850Z,7.50
2017-09-13T20:20:44.502Z,7.23
2017-09-13T20:23:11.122Z,12.43
2017-09-13T20:25:37.763Z,11.10
2017-09-13T20:28:04.411Z,9.93
2017-09-13T20:30:31.043Z,24.57
2017-09-13T20:32:57.673Z,15.17
2017-09-13T20:35:24.309Z,11.20
2017-09-13T20:37:50.951Z,14.83
2017-09-13T20:40:17.582Z,11.00
2017-09-13T20:42:44.257Z,10.53
2017-09-13T20:45:10.874Z,15.83
2017-09-13T20:47:37.508Z,10.23
2017-09-13T20:50:04.140Z,10.23
2017-09-13T20:52:30.759Z,20.03
2017-09-13T20:54:57.395Z,12.57
2017-09-13T20:57:24.033Z,16.87
2017-09-13T20:59:50.698Z,11.30
2017-09-13T21:02:17.315Z,13.40
2017-09-13T21:04:43.977Z,11.40
2017-09-13T21:07:10.625Z,11.57
2017-09-13T21:09:37.265Z,17.43
2017-09-13T21:12:03.948Z,12.27
2017-09-13T21:14:30.671Z,11.40
2017-09-13T21:16:57.319Z,12.20
2017-09-13T21:19:23.955Z,15.57
2017-09-13T21:21:50.572Z,9.63
2017-09-13T21:24:17.219Z,14.20
2017-09-13T21:26:43.845Z,10.97
2017-09-13T21:29:10.552Z,11.83
2017-09-13T21:31:37.184Z,14.77
2017-09-13T21:34:03.782Z,16.67
2017-09-13T21:36:30.429Z,14.77
2017-09-13T21:38:57.066Z,20.10
2017-09-13T21:41:23.712Z,12.60
2017-09-13T21:43:50.329Z,19.57
2017-09-13T21:46:16.950Z,12.13
2017-09-13T21:48:43.609Z,9.07
2017-09-13T21:51:10.288Z,17.50
2017-09-13T21:53:36.922Z,15.93
2017-09-13T21:56:03.566Z,17.50
2017-09-13T21:58:30.219Z,11.77
2017-09-13T22:00:56.853Z,23.67
2017-09-13T22:03:23.481Z,18.17
2017-09-13T22:05:50.128Z,16.20
2017-09-13T22:08:16.781Z,22.13
2017-09-13T22:10:43.433Z,26.10
2017-09-13T22:13:10.053Z,21.80
2017-09-13T22:15:36.695Z,22.63
2017-09-13T22:18:03.323Z,15.77
2017-09-13T22:20:29.963Z,19.80
2017-09-13T22:22:56.589Z,14.70
2017-09-13T22:25:23.251Z,16.07
2017-09-13T22:27:49.877Z,13.60
2017-09-13T22:30:16.516Z,7.10
2017-09-13T22:32:43.173Z,20.20
2017-09-13T22:35:09.796Z,10.47
2017-09-13T22:37:36.435Z,11.30
2017-09-13T22:40:03.061Z,9.30
2017-09-13T22:42:29.716Z,16.03
2017-09-13T22:44:56.337Z,6.27
2017-09-13T22:47:22.955Z,10.33
2017-09-13T22:49:49.838Z,6.47
2017-09-13T22:52:16.474Z,10.17
2017-09-13T22:54:43.101Z,9.23
2017-09-13T22:57:09.727Z,19.27
2017-09-13T22:59:36.335Z,15.83
2017-09-13T23:02:02.970Z,8.97
2017-09-13T23:04:29.962Z,6.63
2017-09-13T23:06:56.618Z,13.27
2017-09-13T23:09:23.215Z,13.23
2017-09-13T23:11:49.838Z,16.60
2017-09-13T23:14:16.475Z,9.30
2017-09-13T23:16:43.105Z,7.13
2017-09-13T23:19:09.750Z,10.80
2017-09-13T23:21:36.365Z,8.80
2017-09-13T23:24:03.017Z,10.80
2017-09-13T23:26:29.641Z,9.17
2017-09-13T23:28:56.267Z,5.70
2017-09-13T23:31:22.884Z,7.47
2017-09-13T23:33:49.904Z,13.43
2017-09-13T23:36:16.548Z,9.43
2017-09-13T23:38:43.164Z,19.60
2017-09-13T23:41:09.831Z,11.03
2017-09-13T23:43:36.470Z,8.93
2017-09-13T23:46:03.096Z,12.03
2017-09-13T23:48:29.727Z,10.03
2017-09-13T23:50:56.376Z,14.90
2017-09-13T23:53:23.020Z,16.03
2017-09-13T23:55:49.630Z,10.27
2017-09-13T23:58:16.283Z,10.70
